createdAt,value
2018-12-23T00:02:06.293Z,5.17
2018-12-23T00:04:35.452Z,5.57
2018-12-23T00:07:04.680Z,6.10
2018-12-23T00:09:33.912Z,5.60
2018-12-23T00:12:03.124Z,6.20
2018-12-23T00:14:32.325Z,6.73
2018-12-23T00:17:01.482Z,6.97
2018-12-23T00:19:30.661Z,6.90
2018-12-23T00:21:59.849Z,7.93
2018-12-23T00:24:28.944Z,7.10
2018-12-23T00:26:58.190Z,7.40
2018-12-23T00:29:27.480Z,7.70
2018-12-23T00:31:56.649Z,7.63
2018-12-23T00:34:25.941Z,7.53
2018-12-23T00:36:55.188Z,7.90
2018-12-23T00:39:24.337Z,8.17
2018-12-23T00:41:53.738Z,7.30
2018-12-23T00:44:22.975Z,6.00
2018-12-23T00:46:52.191Z,6.10
2018-12-23T00:49:21.383Z,6.00
2018-12-23T00:51:50.659Z,6.57
2018-12-23T00:54:19.872Z,7.17
2018-12-23T00:56:49.064Z,7.03
2018-12-23T00:59:18.232Z,6.67
2018-12-23T01:01:47.356Z,7.00
2018-12-23T01:04:16.500Z,7.13
2018-12-23T01:06:45.695Z,6.97
2018-12-23T01:09:14.934Z,8.00
2018-12-23T01:11:44.179Z,7.73
2018-12-23T01:14:13.324Z,6.77
2018-12-23T01:16:42.461Z,8.20
2018-12-23T01:19:11.652Z,8.00
2018-12-23T01:21:40.848Z,8.37
2018-12-23T01:24:10.071Z,7.80
2018-12-23T01:26:39.315Z,7.60
2018-12-23T01:29:08.584Z,8.10
2018-12-23T01:31:37.735Z,8.00
2018-12-23T01:34:06.973Z,8.57
2018-12-23T01:36:36.178Z,8.40
2018-12-23T01:39:06.841Z,8.13
2018-12-23T01:41:36.016Z,8.60
2018-12-23T01:44:05.154Z,8.50
2018-12-23T01:46:34.377Z,8.77
2018-12-23T01:49:03.620Z,8.87
2018-12-23T01:51:32.905Z,9.90
2018-12-23T01:54:02.467Z,8.80
2018-12-23T01:56:31.812Z,9.43
2018-12-23T01:59:01.017Z,9.00
2018-12-23T02:01:30.293Z,8.93
2018-12-23T02:03:59.476Z,8.10
2018-12-23T02:06:28.721Z,9.07
2018-12-23T02:08:57.984Z,8.10
2018-12-23T02:11:27.232Z,8.23
2018-12-23T02:13:56.396Z,8.40
2018-12-23T02:16:25.541Z,8.80
2018-12-23T02:18:54.810Z,8.60
2018-12-23T02:21:24.075Z,9.30
2018-12-23T02:23:53.189Z,9.70
2018-12-23T02:26:22.461Z,10.27
2018-12-23T02:28:51.698Z,10.30
2018-12-23T02:31:20.885Z,10.80
2018-12-23T02:33:50.031Z,10.80
2018-12-23T02:36:19.197Z,11.40
2018-12-23T02:38:48.615Z,11.13
2018-12-23T02:41:17.820Z,11.97
2018-12-23T02:43:47.010Z,11.70
2018-12-23T02:46:16.260Z,10.67
2018-12-23T02:48:45.814Z,11.10
2018-12-23T02:51:15.017Z,10.57
2018-12-23T02:53:44.466Z,10.40
2018-12-23T02:56:13.690Z,9.93
2018-12-23T02:58:42.947Z,10.77
2018-12-23T03:01:12.138Z,10.70
2018-12-23T03:03:41.401Z,10.70
2018-12-23T03:06:10.575Z,11.47
2018-12-23T03:08:39.664Z,11.37
2018-12-23T03:11:08.816Z,11.90
2018-12-23T03:13:38.010Z,9.87
2018-12-23T03:16:07.204Z,10.17
2018-12-23T03:18:36.430Z,11.27
2018-12-23T03:21:05.674Z,9.60
2018-12-23T03:23:34.806Z,9.90
2018-12-23T03:26:04.047Z,8.97
2018-12-23T03:28:33.225Z,7.30
2018-12-23T03:31:02.515Z,8.07
2018-12-23T03:33:31.704Z,8.60
2018-12-23T03:36:00.772Z,7.07
2018-12-23T03:38:29.880Z,6.90
2018-12-23T03:40:59.091Z,5.50
2018-12-23T03:43:28.344Z,6.27
2018-12-23T03:45:57.487Z,4.90
2018-12-23T03:48:26.697Z,4.90
2018-12-23T03:50:55.922Z,5.20
2018-12-23T03:53:25.003Z,4.90
2018-12-23T03:55:54.184Z,5.27
2018-12-23T03:58:23.354Z,3.77
2018-12-23T04:00:52.564Z,5.07
2018-12-23T04:03:21.735Z,4.27
2018-12-23T04:05:50.867Z,4.80
2018-12-23T04:08:20.076Z,4.40
2018-12-23T04:10:49.241Z,4.70
2018-12-23T04:13:18.380Z,4.60
2018-12-23T04:15:47.573Z,4.77
2018-12-23T04:18:16.842Z,4.27
2018-12-23T04:20:46.092Z,4.40
2018-12-23T04:23:15.188Z,4.50
2018-12-23T04:25:44.373Z,4.07
2018-12-23T04:28:13.557Z,4.13
2018-12-23T04:30:42.803Z,4.57
2018-12-23T04:33:11.934Z,3.60
2018-12-23T04:35:41.136Z,4.07
2018-12-23T04:38:10.301Z,4.10
2018-12-23T04:40:39.460Z,4.07
2018-12-23T04:43:08.698Z,4.30
2018-12-23T04:45:38.127Z,4.33
2018-12-23T04:48:07.398Z,3.30
2018-12-23T04:50:36.746Z,4.50
2018-12-23T04:53:06.026Z,4.23
2018-12-23T04:55:35.393Z,4.13
2018-12-23T04:58:47.991Z,4.50
2018-12-23T05:01:37.614Z,3.83
2018-12-23T05:04:27.145Z,3.83
2018-12-23T05:07:16.741Z,3.70
2018-12-23T05:10:06.267Z,3.40
2018-12-23T05:12:56.102Z,3.40
2018-12-23T05:15:45.654Z,3.63
2018-12-23T05:18:35.214Z,4.17
2018-12-23T05:21:24.742Z,3.30
2018-12-23T05:24:14.273Z,3.30
2018-12-23T05:27:04.116Z,3.60
2018-12-23T05:29:53.637Z,3.40
2018-12-23T05:32:43.142Z,4.07
2018-12-23T05:35:33.521Z,3.07
2018-12-23T05:38:41.940Z,3.43
2018-12-23T05:41:31.441Z,3.40
2018-12-23T05:44:20.976Z,3.90
2018-12-23T05:47:10.544Z,3.17
2018-12-23T05:49:53.090Z,3.40
2018-12-23T05:52:42.581Z,2.97
2018-12-23T05:55:30.713Z,4.43
2018-12-23T05:58:20.220Z,3.23
2018-12-23T06:01:09.749Z,3.83
2018-12-23T06:03:59.579Z,3.60
2018-12-23T06:06:49.177Z,3.80
2018-12-23T06:09:39.030Z,3.37
2018-12-23T06:12:47.500Z,3.20
2018-12-23T06:15:37.028Z,4.00
2018-12-23T06:18:26.849Z,2.87
2018-12-23T06:21:16.372Z,3.23
2018-12-23T06:24:05.936Z,3.60
2018-12-23T06:26:55.765Z,3.67
2018-12-23T06:29:45.585Z,3.33
2018-12-23T06:35:43.425Z,3.10
2018-12-23T06:38:51.915Z,3.47
2018-12-23T06:41:41.643Z,3.07
2018-12-23T06:44:31.458Z,3.27
2018-12-23T06:47:21.649Z,3.40
2018-12-23T06:50:03.643Z,3.57
2018-12-23T06:52:46.013Z,3.27
2018-12-23T06:58:32.459Z,3.80
2018-12-23T07:01:22.038Z,4.20
2018-12-23T07:04:11.557Z,4.50
2018-12-23T07:07:01.135Z,3.90
2018-12-23T07:09:50.625Z,3.50
2018-12-23T07:12:40.449Z,4.00
2018-12-23T07:15:29.983Z,4.07
2018-12-23T07:18:19.485Z,4.17
2018-12-23T07:21:08.999Z,3.30
2018-12-23T07:23:58.599Z,3.73
2018-12-23T07:26:48.166Z,3.50
2018-12-23T07:29:37.905Z,4.60
2018-12-23T07:32:27.789Z,5.13
2018-12-23T07:35:17.335Z,4.73
2018-12-23T07:38:06.883Z,4.30
2018-12-23T07:40:56.486Z,4.20
2018-12-23T07:47:14.815Z,3.93
2018-12-23T07:49:56.841Z,3.50
2018-12-23T07:52:46.385Z,3.90
2018-12-23T07:55:35.925Z,3.50
2018-12-23T07:58:25.487Z,3.37
2018-12-23T08:01:14.995Z,3.17
2018-12-23T08:04:04.523Z,4.00
2018-12-23T08:06:54.511Z,4.17
2018-12-23T08:09:44.031Z,3.13
2018-12-23T08:12:33.589Z,3.50
2018-12-23T08:15:23.117Z,3.60
2018-12-23T08:18:12.676Z,3.20
2018-12-23T08:21:02.218Z,3.63
2018-12-23T08:23:51.783Z,4.33
2018-12-23T08:26:41.625Z,4.03
2018-12-23T08:29:31.297Z,4.80
2018-12-23T08:32:20.930Z,3.70
2018-12-23T08:35:10.442Z,5.07
2018-12-23T08:38:00.596Z,5.13
2018-12-23T08:40:50.135Z,5.10
2018-12-23T08:47:09.042Z,5.50
2018-12-23T08:49:58.569Z,5.30
2018-12-23T08:52:40.686Z,6.00
2018-12-23T08:55:30.206Z,5.10
2018-12-23T08:58:19.763Z,4.57
2018-12-23T09:01:09.271Z,4.50
2018-12-23T09:03:59.055Z,4.70
2018-12-23T09:06:48.593Z,5.00
2018-12-23T09:09:58.035Z,5.03
2018-12-23T09:12:47.562Z,5.60
2018-12-23T09:15:37.077Z,4.93
2018-12-23T09:18:26.602Z,5.13
2018-12-23T09:24:32.267Z,5.30
2018-12-23T09:27:21.835Z,5.20
2018-12-23T09:30:11.364Z,6.73
2018-12-23T09:33:00.894Z,6.27
2018-12-23T09:35:50.479Z,6.50
2018-12-23T09:38:40.017Z,6.47
2018-12-23T09:44:37.915Z,7.40
2018-12-23T09:47:27.500Z,4.70
2018-12-23T09:50:10.110Z,6.83
2018-12-23T09:52:59.662Z,7.17
2018-12-23T09:55:49.206Z,6.87
2018-12-23T09:58:38.735Z,7.30
2018-12-23T10:01:28.607Z,8.97
2018-12-23T10:04:18.137Z,7.17
2018-12-23T10:06:48.563Z,7.03
2018-12-23T10:09:19.049Z,6.17
2018-12-23T10:11:49.455Z,7.07
2018-12-23T10:14:20.637Z,6.37
2018-12-23T10:16:51.328Z,7.07
2018-12-23T10:19:22.986Z,6.20
2018-12-23T10:21:53.688Z,5.70
2018-12-23T10:24:24.149Z,5.53
2018-12-23T10:26:54.864Z,6.13
2018-12-23T10:29:25.426Z,5.60
2018-12-23T10:31:55.873Z,6.20
2018-12-23T10:34:26.267Z,5.90
2018-12-23T10:36:56.716Z,4.83
2018-12-23T10:39:27.417Z,6.40
2018-12-23T10:41:57.784Z,5.90
2018-12-23T10:44:28.215Z,5.90
2018-12-23T10:47:00.102Z,7.13
2018-12-23T10:49:30.758Z,5.73
2018-12-23T10:52:01.145Z,7.13
2018-12-23T10:54:31.593Z,6.67
2018-12-23T10:57:02.036Z,6.70
2018-12-23T10:59:32.462Z,8.23
2018-12-23T11:02:02.923Z,6.80
2018-12-23T11:04:33.277Z,7.43
2018-12-23T11:07:04.047Z,7.30
2018-12-23T11:09:34.411Z,7.90
2018-12-23T11:12:04.859Z,7.77
2018-12-23T11:14:35.338Z,8.00
2018-12-23T11:17:05.795Z,8.13
2018-12-23T11:19:36.199Z,8.23
2018-12-23T11:22:06.686Z,8.23
2018-12-23T11:24:37.071Z,7.93
2018-12-23T11:27:07.514Z,7.87
2018-12-23T11:29:37.899Z,8.83
2018-12-23T11:32:08.332Z,9.07
2018-12-23T11:34:38.751Z,9.20
2018-12-23T11:37:09.244Z,9.30
2018-12-23T11:39:39.983Z,8.90
2018-12-23T11:42:10.406Z,9.27
2018-12-23T11:44:40.779Z,10.57
2018-12-23T11:47:11.183Z,9.27
2018-12-23T11:49:41.985Z,9.40
2018-12-23T11:52:12.419Z,9.40
2018-12-23T11:54:43.184Z,10.00
2018-12-23T11:57:13.629Z,9.63
2018-12-23T11:59:44.042Z,8.93
2018-12-23T12:02:15.403Z,8.73
2018-12-23T12:04:46.120Z,8.53
2018-12-23T12:07:16.540Z,8.73
2018-12-23T12:09:46.948Z,8.63
2018-12-23T12:12:17.902Z,8.20
2018-12-23T12:14:48.303Z,9.97
2018-12-23T12:17:18.695Z,9.40
2018-12-23T12:19:49.113Z,8.87
2018-12-23T12:22:19.577Z,10.63
2018-12-23T12:24:50.174Z,9.87
2018-12-23T12:27:20.574Z,10.27
2018-12-23T12:29:51.265Z,9.07
2018-12-23T12:32:21.645Z,9.07
2018-12-23T12:34:52.121Z,9.07
2018-12-23T12:37:23.066Z,9.80
2018-12-23T12:39:53.543Z,10.73
2018-12-23T12:42:24.411Z,9.67
2018-12-23T12:44:54.849Z,11.03
2018-12-23T12:47:25.255Z,9.80
2018-12-23T12:49:55.631Z,9.80
2018-12-23T12:52:26.394Z,10.60
2018-12-23T12:54:56.795Z,12.33
2018-12-23T12:57:27.238Z,12.07
2018-12-23T12:59:57.675Z,11.90
2018-12-23T13:02:28.097Z,13.20
2018-12-23T13:04:58.509Z,14.43
2018-12-23T13:07:28.876Z,14.30
2018-12-23T13:09:59.312Z,14.40
2018-12-23T13:12:30.042Z,14.97
2018-12-23T13:15:00.550Z,15.07
2018-12-23T13:17:30.943Z,14.07
2018-12-23T13:20:01.320Z,14.47
2018-12-23T13:22:31.822Z,15.90
2018-12-23T13:25:02.294Z,15.50
2018-12-23T13:27:32.685Z,15.37
2018-12-23T13:30:03.110Z,13.80
2018-12-23T13:32:33.857Z,14.80
2018-12-23T13:35:04.381Z,15.60
2018-12-23T13:37:35.075Z,14.70
2018-12-23T13:40:58.239Z,15.27
2018-12-23T13:44:25.750Z,15.00
2018-12-23T13:47:40.008Z,14.10
2018-12-23T13:51:19.213Z,13.80
2018-12-23T13:54:49.677Z,13.90
2018-12-23T13:58:26.608Z,13.57
2018-12-23T14:01:38.677Z,13.73
2018-12-23T14:05:16.974Z,13.97
2018-12-23T14:08:32.302Z,14.37
2018-12-23T14:11:43.606Z,15.53
2018-12-23T14:14:13.988Z,13.70
2018-12-23T14:16:44.678Z,14.60
2018-12-23T14:19:15.122Z,13.40
2018-12-23T14:21:45.868Z,13.13
2018-12-23T14:24:16.247Z,13.67
2018-12-23T14:26:46.685Z,11.90
2018-12-23T14:29:17.293Z,12.43
2018-12-23T14:31:47.711Z,11.27
2018-12-23T14:34:18.110Z,10.77
2018-12-23T14:36:48.609Z,12.63
2018-12-23T14:39:26.120Z,12.57
2018-12-23T14:41:54.494Z,12.70
2018-12-23T14:44:24.650Z,14.50
2018-12-23T14:46:55.002Z,14.47
2018-12-23T14:49:25.473Z,15.03
2018-12-23T14:51:55.882Z,13.60
2018-12-23T14:54:26.243Z,13.10
2018-12-23T14:56:56.703Z,13.60
2018-12-23T14:59:27.341Z,13.87
2018-12-23T15:01:57.755Z,12.70
2018-12-23T15:04:28.256Z,12.53
2018-12-23T15:06:58.658Z,13.23
2018-12-23T15:09:34.171Z,11.70
2018-12-23T15:12:01.628Z,12.10
2018-12-23T15:14:32.396Z,10.47
2018-12-23T15:17:02.907Z,13.03
2018-12-23T15:19:33.316Z,11.87
2018-12-23T15:22:03.715Z,11.87
2018-12-23T15:24:34.122Z,11.87
2018-12-23T15:27:04.517Z,10.97
2018-12-23T15:29:34.941Z,12.07
2018-12-23T15:32:05.321Z,11.50
2018-12-23T15:34:35.895Z,12.27
2018-12-23T15:37:06.629Z,14.23
2018-12-23T15:39:42.610Z,13.20
2018-12-23T15:42:09.225Z,13.10
2018-12-23T15:44:39.651Z,12.07
2018-12-23T15:47:10.456Z,12.60
2018-12-23T15:49:41.179Z,12.83
2018-12-23T15:52:11.585Z,12.83
2018-12-23T15:54:46.232Z,12.20
2018-12-23T15:57:14.494Z,11.60
2018-12-23T15:59:44.927Z,11.80
2018-12-23T16:02:15.674Z,11.67
2018-12-23T16:04:46.179Z,12.80
2018-12-23T16:07:16.561Z,13.27
2018-12-23T16:09:51.162Z,12.77
2018-12-23T16:12:19.343Z,13.07
2018-12-23T16:14:49.788Z,14.50
2018-12-23T16:17:20.180Z,13.57
2018-12-23T16:19:50.769Z,12.70
2018-12-23T16:22:21.173Z,14.53
2018-12-23T16:24:51.604Z,12.13
2018-12-23T16:27:22.007Z,12.40
2018-12-23T16:29:52.707Z,13.50
2018-12-23T16:32:23.105Z,11.90
2018-12-23T16:34:53.484Z,11.70
2018-12-23T16:37:23.850Z,11.90
2018-12-23T16:39:59.529Z,13.30
2018-12-23T16:42:26.366Z,11.57
2018-12-23T16:44:57.034Z,13.00
2018-12-23T16:47:27.465Z,11.87
2018-12-23T16:49:57.848Z,10.40
2018-12-23T16:52:28.666Z,10.80
2018-12-23T16:54:59.051Z,11.70
2018-12-23T16:57:29.432Z,10.97
2018-12-23T16:59:59.828Z,9.27
2018-12-23T17:02:30.500Z,11.70
2018-12-23T17:05:00.845Z,10.03
2018-12-23T17:07:31.231Z,9.80
2018-12-23T17:10:08.212Z,10.50
2018-12-23T17:12:33.890Z,10.47
2018-12-23T17:15:04.385Z,10.53
2018-12-23T17:17:34.727Z,9.13
2018-12-23T17:20:06.894Z,10.27
2018-12-23T17:22:37.600Z,10.07
2018-12-23T17:25:07.983Z,10.00
2018-12-23T17:27:38.439Z,10.60
2018-12-23T17:30:09.998Z,9.10
2018-12-23T17:32:40.734Z,9.43
2018-12-23T17:35:11.101Z,9.80
2018-12-23T17:37:41.484Z,9.77
2018-12-23T17:40:16.441Z,9.63
2018-12-23T17:42:44.003Z,10.03
2018-12-23T17:45:14.382Z,8.50
2018-12-23T17:47:44.738Z,9.20
2018-12-23T17:50:15.148Z,10.10
2018-12-23T17:52:45.528Z,9.97
2018-12-23T17:55:16.147Z,9.20
2018-12-23T17:57:46.523Z,8.27
2018-12-23T18:00:16.901Z,8.53
2018-12-23T18:02:47.305Z,9.53
2018-12-23T18:05:17.708Z,9.10
2018-12-23T18:07:48.035Z,9.37
2018-12-23T18:10:25.018Z,10.40
2018-12-23T18:12:50.653Z,8.60
2018-12-23T18:15:21.091Z,9.90
2018-12-23T18:17:51.431Z,9.67
2018-12-23T18:20:21.803Z,9.50
2018-12-23T18:22:52.226Z,9.03
2018-12-23T18:25:22.602Z,9.80
2018-12-23T18:27:53.357Z,9.23
2018-12-23T18:30:23.739Z,9.33
2018-12-23T18:32:54.139Z,10.03
2018-12-23T18:35:24.598Z,8.87
2018-12-23T18:37:55.387Z,9.93
2018-12-23T18:40:33.120Z,8.67
2018-12-23T18:42:57.944Z,10.43
2018-12-23T18:45:28.703Z,9.43
2018-12-23T18:47:59.075Z,11.40
2018-12-23T18:50:29.437Z,8.90
2018-12-23T18:52:59.900Z,11.50
2018-12-23T18:55:35.357Z,11.50
2018-12-23T18:58:06.142Z,11.50
2018-12-23T19:00:36.571Z,11.30
2018-12-23T19:03:07.313Z,11.20
2018-12-23T19:05:37.710Z,11.23
2018-12-23T19:08:14.742Z,12.67
2018-12-23T19:11:41.709Z,12.50
2018-12-23T19:15:29.517Z,11.93
2018-12-23T19:19:05.351Z,13.20
2018-12-23T19:22:34.760Z,12.13
2018-12-23T19:26:15.898Z,13.00
2018-12-23T19:29:37.131Z,13.80
2018-12-23T19:32:54.394Z,13.93
2018-12-23T19:36:19.405Z,12.63
2018-12-23T19:39:41.431Z,12.83
2018-12-23T19:43:12.419Z,13.70
2018-12-23T19:46:37.216Z,12.13
2018-12-23T19:49:51.209Z,14.80
2018-12-23T19:53:16.598Z,10.70
2018-12-23T19:56:44.578Z,10.90
2018-12-23T20:00:23.508Z,9.57
2018-12-23T20:03:37.609Z,11.87
2018-12-23T20:06:55.403Z,11.57
2018-12-23T20:09:58.018Z,11.87
2018-12-23T20:13:17.012Z,10.40
2018-12-23T20:16:31.907Z,9.57
2018-12-23T20:19:55.429Z,9.70
2018-12-23T20:23:10.661Z,8.97
2018-12-23T20:26:49.707Z,10.10
2018-12-23T20:30:08.455Z,9.17
2018-12-23T20:33:36.980Z,8.13
2018-12-23T20:37:02.706Z,9.23
2018-12-23T20:40:27.693Z,9.43
2018-12-23T20:43:38.050Z,10.30
2018-12-23T20:47:02.115Z,11.30
2018-12-23T20:50:28.403Z,12.60
2018-12-23T20:54:17.097Z,12.20
2018-12-23T20:57:36.438Z,12.73
2018-12-23T21:00:55.307Z,12.80
2018-12-23T21:04:32.695Z,12.00
2018-12-23T21:08:24.606Z,12.07
2018-12-23T21:12:08.418Z,14.10
2018-12-23T21:15:25.929Z,14.30
2018-12-23T21:18:57.433Z,10.50
2018-12-23T21:22:06.691Z,10.60
2018-12-23T21:25:11.114Z,10.60
2018-12-23T21:28:25.558Z,9.73
2018-12-23T21:31:36.158Z,8.80
2018-12-23T21:35:14.040Z,8.20
2018-12-23T21:38:17.630Z,8.33
2018-12-23T21:41:39.463Z,7.10
2018-12-23T21:45:15.441Z,8.00
2018-12-23T21:48:39.777Z,7.33
2018-12-23T21:52:09.453Z,7.20
2018-12-23T21:55:41.437Z,8.17
2018-12-23T21:58:58.258Z,10.57
2018-12-23T22:02:09.664Z,8.20
2018-12-23T22:05:07.990Z,7.27
2018-12-23T22:08:35.853Z,7.97
2018-12-23T22:12:03.705Z,7.07
2018-12-23T22:14:53.233Z,6.77
2018-12-23T22:17:42.765Z,14.00
2018-12-23T22:20:32.292Z,7.13
2018-12-23T22:23:21.890Z,5.73
2018-12-23T22:26:11.748Z,5.00
2018-12-23T22:29:01.306Z,5.53
2018-12-23T22:31:50.796Z,5.50
2018-12-23T22:34:40.324Z,4.97
2018-12-23T22:37:29.842Z,5.37
2018-12-23T22:40:19.440Z,4.60
2018-12-23T22:43:09.207Z,4.70
2018-12-23T22:46:17.594Z,5.03
2018-12-23T22:49:07.095Z,5.93
2018-12-23T22:51:56.700Z,5.53
2018-12-23T22:54:46.346Z,5.40
2018-12-23T22:57:29.011Z,5.83
2018-12-23T23:03:15.515Z,6.30
2018-12-23T23:06:05.187Z,6.63
2018-12-23T23:08:54.717Z,6.70
2018-12-23T23:11:49.760Z,7.40
2018-12-23T23:14:35.570Z,7.23
2018-12-23T23:17:25.072Z,7.50
2018-12-23T23:20:14.611Z,6.93
2018-12-23T23:23:04.099Z,7.20
2018-12-23T23:25:53.658Z,7.93
2018-12-23T23:28:43.181Z,8.93
2018-12-23T23:31:32.703Z,8.17
2018-12-23T23:34:22.195Z,8.80
2018-12-23T23:37:11.735Z,8.80
2018-12-23T23:40:01.513Z,9.83
2018-12-23T23:42:51.070Z,9.00
2018-12-23T23:45:40.556Z,9.10
2018-12-23T23:48:30.342Z,9.37
2018-12-23T23:51:19.849Z,10.10
2018-12-23T23:54:09.406Z,8.83
2018-12-23T23:56:58.958Z,8.10
2018-12-23T23:59:48.480Z,9.27
